createdAt,value
2024-02-16T00:00:27.508Z,8.72
2024-02-16T00:05:52.859Z,8.68
2024-02-16T00:10:56.242Z,8.63
2024-02-16T00:15:59.571Z,8.61
2024-02-16T00:21:03.417Z,8.61
2024-02-16T00:26:08.542Z,8.61
2024-02-16T00:31:11.808Z,8.61
2024-02-16T00:36:15.686Z,8.63
2024-02-16T00:41:21.778Z,8.63
2024-02-16T00:46:25.208Z,8.64
2024-02-16T00:51:28.628Z,8.65
2024-02-16T00:56:35.397Z,8.67
2024-02-16T01:01:38.674Z,8.69
2024-02-16T01:06:41.907Z,8.70
2024-02-16T01:11:45.175Z,8.70
2024-02-16T01:16:48.423Z,8.71
2024-02-16T01:21:58.878Z,8.71
2024-02-16T01:27:02.924Z,8.74
2024-02-16T01:32:06.332Z,8.76
2024-02-16T01:37:09.368Z,8.76
2024-02-16T01:42:14.168Z,8.75
2024-02-16T01:47:20.061Z,8.73
2024-02-16T01:52:23.202Z,8.73
2024-02-16T01:57:26.941Z,8.75
2024-02-16T02:02:30.096Z,8.77
2024-02-16T02:07:33.312Z,8.79
2024-02-16T02:12:36.517Z,8.82
2024-02-16T02:17:40.589Z,8.84
2024-02-16T02:22:44.161Z,8.86
2024-02-16T02:27:47.804Z,8.83
2024-02-16T02:32:53.688Z,8.80
2024-02-16T02:37:56.753Z,8.78
2024-02-16T02:42:59.672Z,8.75
2024-02-16T02:48:02.841Z,8.70
2024-02-16T02:53:06.053Z,8.68
2024-02-16T02:58:09.107Z,8.66
2024-02-16T03:03:12.295Z,8.65
2024-02-16T03:08:15.816Z,8.66
2024-02-16T03:13:20.226Z,8.68
2024-02-16T03:18:24.111Z,8.67
2024-02-16T03:23:27.531Z,8.66
2024-02-16T03:28:30.614Z,8.66
2024-02-16T03:33:34.063Z,8.63
2024-02-16T03:38:37.257Z,8.59
2024-02-16T03:43:40.460Z,8.55
2024-02-16T03:48:44.136Z,8.51
2024-02-16T03:53:47.879Z,8.50
2024-02-16T03:58:51.114Z,8.48
2024-02-16T04:03:54.362Z,8.45
2024-02-16T04:08:58.007Z,8.42
2024-02-16T04:14:01.476Z,8.42
2024-02-16T04:19:04.842Z,8.42
2024-02-16T04:24:09.063Z,8.42
2024-02-16T04:29:13.003Z,8.42
2024-02-16T04:34:16.175Z,8.38
2024-02-16T04:39:21.175Z,8.35
2024-02-16T04:44:24.477Z,8.30
2024-02-16T04:49:27.643Z,8.27
2024-02-16T04:54:31.024Z,8.25
2024-02-16T04:59:34.118Z,8.24
2024-02-16T05:04:37.232Z,8.21
2024-02-16T05:09:41.188Z,8.20
2024-02-16T05:14:44.261Z,8.19
2024-02-16T05:19:47.594Z,8.21
2024-02-16T05:24:56.134Z,8.20
2024-02-16T05:29:59.894Z,8.19
2024-02-16T05:35:12.661Z,8.21
2024-02-16T05:40:31.867Z,8.21
2024-02-16T05:45:36.780Z,8.25
2024-02-16T05:50:39.982Z,8.26
2024-02-16T05:55:45.613Z,8.26
2024-02-16T06:00:49.613Z,8.27
2024-02-16T06:05:52.732Z,8.26
2024-02-16T06:10:55.957Z,8.24
2024-02-16T06:15:59.047Z,8.26
2024-02-16T06:21:05.260Z,8.28
2024-02-16T06:26:08.470Z,8.29
2024-02-16T06:31:12.128Z,8.29
2024-02-16T06:36:15.203Z,8.27
2024-02-16T06:41:18.238Z,8.26
2024-02-16T06:46:21.455Z,8.24
2024-02-16T06:51:27.930Z,8.23
2024-02-16T06:56:32.067Z,8.26
2024-02-16T07:01:35.129Z,8.29
2024-02-16T07:06:38.299Z,8.31
2024-02-16T07:11:41.374Z,8.34
2024-02-16T07:16:44.388Z,8.37
2024-02-16T07:21:47.522Z,8.42
2024-02-16T07:26:50.665Z,8.46
2024-02-16T07:31:53.828Z,8.52
2024-02-16T07:36:58.011Z,8.60
2024-02-16T07:42:01.049Z,8.67
2024-02-16T07:47:04.594Z,8.76
2024-02-16T07:52:07.662Z,8.89
2024-02-16T07:57:10.700Z,9.11
2024-02-16T08:02:16.784Z,9.42
2024-02-16T08:07:19.961Z,9.55
2024-02-16T08:12:23.531Z,9.57
2024-02-16T08:17:26.623Z,9.54
2024-02-16T08:22:29.810Z,9.44
2024-02-16T08:27:33.685Z,9.44
2024-02-16T08:32:36.714Z,9.41
2024-02-16T08:37:40.304Z,9.46
2024-02-16T08:42:44.051Z,9.46
2024-02-16T08:47:50.489Z,9.49
2024-02-16T08:52:56.565Z,9.54
2024-02-16T08:57:59.653Z,9.56
2024-02-16T09:03:07.635Z,9.54
2024-02-16T09:08:11.207Z,9.54
2024-02-16T09:13:14.307Z,9.70
2024-02-16T09:18:17.909Z,10.03
2024-02-16T09:23:21.087Z,10.24
2024-02-16T09:28:29.848Z,10.31
2024-02-16T09:33:36.485Z,10.43
2024-02-16T09:38:39.818Z,10.64
2024-02-16T09:43:44.858Z,10.93
2024-02-16T09:48:54.302Z,11.08
2024-02-16T09:54:00.246Z,11.07
2024-02-16T09:59:06.288Z,11.05
2024-02-16T10:04:11.049Z,11.07
2024-02-16T10:09:25.128Z,11.08
2024-02-16T10:14:29.530Z,11.03
2024-02-16T10:19:43.374Z,11.06
2024-02-16T10:24:47.564Z,11.15
2024-02-16T10:29:55.582Z,11.27
2024-02-16T10:34:59.853Z,11.50
2024-02-16T10:40:04.386Z,11.84
2024-02-16T10:45:08.699Z,12.24
2024-02-16T10:50:13.669Z,12.51
2024-02-16T10:55:18.223Z,12.64
2024-02-16T11:00:22.313Z,12.73
2024-02-16T11:05:48.281Z,12.90
2024-02-16T11:11:05.054Z,13.01
2024-02-16T11:16:10.585Z,13.09
2024-02-16T11:21:16.428Z,13.10
2024-02-16T11:26:19.454Z,13.04
2024-02-16T11:31:23.229Z,13.13
2024-02-16T11:36:29.345Z,13.26
2024-02-16T11:41:32.435Z,13.34
2024-02-16T11:46:36.889Z,13.43
2024-02-16T11:51:40.821Z,13.46
2024-02-16T11:56:52.921Z,13.51
2024-02-16T12:01:59.808Z,13.64
2024-02-16T12:07:05.930Z,13.71
2024-02-16T12:12:09.537Z,13.85
2024-02-16T12:17:12.563Z,13.86
2024-02-16T12:22:22.798Z,13.80
2024-02-16T12:27:25.865Z,13.84
2024-02-16T12:32:29.517Z,13.92
2024-02-16T12:37:32.638Z,14.00
2024-02-16T12:42:36.080Z,14.14
2024-02-16T12:47:41.804Z,14.15
2024-02-16T12:52:54.962Z,14.13
2024-02-16T12:58:09.475Z,14.14
2024-02-16T13:03:21.760Z,14.15
2024-02-16T13:08:29.418Z,14.13
2024-02-16T13:13:33.287Z,14.14
2024-02-16T13:18:38.737Z,14.10
2024-02-16T13:23:41.956Z,14.01
2024-02-16T13:28:45.105Z,13.91
2024-02-16T13:33:48.244Z,13.83
2024-02-16T13:38:51.500Z,13.80
2024-02-16T13:43:54.773Z,13.81
2024-02-16T13:48:58.848Z,13.82
2024-02-16T13:54:02.528Z,13.82
2024-02-16T13:59:09.093Z,13.81
2024-02-16T14:04:15.958Z,13.82
2024-02-16T14:09:24.333Z,13.77
2024-02-16T14:14:37.994Z,13.66
2024-02-16T14:19:42.884Z,13.60
2024-02-16T14:24:46.234Z,13.53
2024-02-16T14:29:49.263Z,13.42
2024-02-16T14:34:53.030Z,13.34
2024-02-16T14:39:59.916Z,13.25
2024-02-16T14:45:06.979Z,13.11
2024-02-16T14:50:22.643Z,12.99
2024-02-16T14:55:28.109Z,12.87
2024-02-16T15:00:32.448Z,12.80
2024-02-16T15:05:36.473Z,12.74
2024-02-16T15:10:41.893Z,12.62
2024-02-16T15:15:45.504Z,12.51
2024-02-16T15:20:51.271Z,12.38
2024-02-16T15:25:57.917Z,12.23
2024-02-16T15:31:12.829Z,12.09
2024-02-16T15:36:16.488Z,11.95
2024-02-16T15:41:19.535Z,11.80
2024-02-16T15:46:22.537Z,11.72
2024-02-16T15:51:25.585Z,11.59
2024-02-16T15:56:28.997Z,11.45
2024-02-16T16:01:38.660Z,11.36
2024-02-16T16:06:43.429Z,11.27
2024-02-16T16:11:47.202Z,11.17
2024-02-16T16:16:55.054Z,11.07
2024-02-16T16:22:02.126Z,10.98
2024-02-16T16:27:10.031Z,10.88
2024-02-16T16:32:14.622Z,10.80
2024-02-16T16:37:17.669Z,10.73
2024-02-16T16:42:20.805Z,10.66
2024-02-16T16:47:24.573Z,10.59
2024-02-16T16:52:27.752Z,10.54
2024-02-16T16:57:30.890Z,10.50
2024-02-16T17:02:34.811Z,10.45
2024-02-16T17:07:37.839Z,10.40
2024-02-16T17:12:41.922Z,10.33
2024-02-16T17:17:49.970Z,10.29
2024-02-16T17:22:54.822Z,10.26
2024-02-16T17:27:58.332Z,10.19
2024-02-16T17:33:02.951Z,10.13
2024-02-16T17:38:06.037Z,10.08
2024-02-16T17:43:09.203Z,10.02
2024-02-16T17:48:12.721Z,9.96
2024-02-16T17:53:16.031Z,9.90
2024-02-16T17:58:19.328Z,9.84
2024-02-16T18:03:22.521Z,9.79
2024-02-16T18:08:27.871Z,9.74
2024-02-16T18:13:32.440Z,9.71
2024-02-16T18:18:35.515Z,9.68
2024-02-16T18:23:42.968Z,9.66
2024-02-16T18:28:46.383Z,9.67
2024-02-16T18:33:49.878Z,9.67
2024-02-16T18:38:53.189Z,9.69
2024-02-16T18:43:56.122Z,9.72
2024-02-16T18:48:59.666Z,9.77
2024-02-16T18:54:03.961Z,9.82
2024-02-16T18:59:09.441Z,9.85
2024-02-16T19:04:12.571Z,9.90
2024-02-16T19:09:15.625Z,9.95
2024-02-16T19:14:19.786Z,9.97
2024-02-16T19:19:24.090Z,10.01
2024-02-16T19:24:33.492Z,10.04
2024-02-16T19:29:43.206Z,10.07
2024-02-16T19:34:46.294Z,10.09
2024-02-16T19:39:49.385Z,10.10
2024-02-16T19:44:52.510Z,10.13
2024-02-16T19:49:55.550Z,10.17
2024-02-16T19:54:59.984Z,10.20
2024-02-16T20:00:04.926Z,10.23
2024-02-16T20:05:08.541Z,10.27
2024-02-16T20:10:12.061Z,10.30
2024-02-16T20:15:16.060Z,10.35
2024-02-16T20:20:23.446Z,10.38
2024-02-16T20:25:27.448Z,10.39
2024-02-16T20:30:31.449Z,10.40
2024-02-16T20:35:34.592Z,10.40
2024-02-16T20:40:37.747Z,10.44
2024-02-16T20:45:40.921Z,10.47
2024-02-16T20:50:43.978Z,10.46
2024-02-16T20:55:47.159Z,10.46
2024-02-16T21:00:50.276Z,10.45
2024-02-16T21:05:53.414Z,10.41
2024-02-16T21:10:56.831Z,10.39
2024-02-16T21:15:59.789Z,10.37
2024-02-16T21:21:04.615Z,10.36
2024-02-16T21:26:07.539Z,10.36
2024-02-16T21:31:10.462Z,10.35
2024-02-16T21:36:16.027Z,10.42
2024-02-16T21:41:19.199Z,10.50
2024-02-16T21:46:30.868Z,10.50
2024-02-16T21:51:36.644Z,10.49
2024-02-16T21:56:39.760Z,10.49
2024-02-16T22:01:42.771Z,10.53
2024-02-16T22:06:46.646Z,10.53
2024-02-16T22:11:50.093Z,10.62
2024-02-16T22:16:53.135Z,10.74
2024-02-16T22:21:58.197Z,10.87
2024-02-16T22:27:01.464Z,10.99
2024-02-16T22:32:12.178Z,11.08
2024-02-16T22:37:20.317Z,11.15
2024-02-16T22:42:23.426Z,11.18
2024-02-16T22:47:26.412Z,11.21
2024-02-16T22:52:29.536Z,11.22
2024-02-16T22:57:32.690Z,11.21
2024-02-16T23:02:36.344Z,11.20
2024-02-16T23:07:39.253Z,11.16
2024-02-16T23:12:43.556Z,11.07
2024-02-16T23:17:48.161Z,10.94
2024-02-16T23:22:58.789Z,10.84
2024-02-16T23:28:02.082Z,10.78
2024-02-16T23:33:05.969Z,10.77
2024-02-16T23:38:09.201Z,10.77
2024-02-16T23:43:13.063Z,10.76
2024-02-16T23:48:16.271Z,10.75
2024-02-16T23:53:19.225Z,10.73
2024-02-16T23:58:22.392Z,10.69
